createdAt,value
2022-07-30T00:00:50.728Z,23.00
2022-07-30T00:03:17.713Z,18.10
2022-07-30T00:05:44.635Z,20.10
2022-07-30T00:08:11.557Z,20.13
2022-07-30T00:10:39.232Z,22.90
2022-07-30T00:13:06.736Z,19.75
2022-07-30T00:15:34.140Z,19.65
2022-07-30T00:18:01.055Z,17.17
2022-07-30T00:20:28.296Z,19.00
2022-07-30T00:22:55.511Z,26.42
2022-07-30T00:25:22.482Z,19.30
2022-07-30T00:27:49.550Z,27.88
2022-07-30T00:30:16.524Z,20.83
2022-07-30T00:32:43.442Z,21.15
2022-07-30T00:35:10.811Z,19.80
2022-07-30T00:37:37.907Z,23.48
2022-07-30T00:40:07.383Z,22.15
2022-07-30T00:42:45.908Z,20.08
2022-07-30T00:45:14.615Z,19.75
2022-07-30T00:47:42.072Z,28.15
2022-07-30T00:50:11.792Z,26.50
2022-07-30T00:52:39.762Z,22.48
2022-07-30T00:55:13.161Z,19.52
2022-07-30T00:57:40.746Z,21.98
2022-07-30T01:00:13.338Z,18.27
2022-07-30T01:02:40.410Z,19.48
2022-07-30T01:05:08.523Z,18.55
2022-07-30T01:07:35.466Z,25.20
2022-07-30T01:10:03.722Z,18.33
2022-07-30T01:12:32.105Z,21.23
2022-07-30T01:15:01.876Z,20.80
2022-07-30T01:17:29.018Z,18.25
2022-07-30T01:20:04.214Z,24.67
2022-07-30T01:22:47.734Z,19.30
2022-07-30T01:25:28.628Z,19.33
2022-07-30T01:28:01.898Z,17.67
2022-07-30T01:30:34.833Z,20.15
2022-07-30T01:35:32.793Z,20.73
2022-07-30T01:38:02.025Z,18.45
2022-07-30T01:40:29.642Z,19.85
2022-07-30T01:42:59.138Z,24.20
2022-07-30T01:45:29.261Z,18.98
2022-07-30T01:48:03.763Z,21.02
2022-07-30T01:50:31.912Z,25.90
2022-07-30T01:53:00.447Z,19.98
2022-07-30T01:55:40.293Z,17.60
2022-07-30T01:58:09.994Z,25.98
2022-07-30T02:00:40.897Z,17.88
2022-07-30T02:03:09.039Z,20.65
2022-07-30T02:05:37.528Z,21.10
2022-07-30T02:08:17.551Z,20.85
2022-07-30T02:11:36.886Z,17.98
2022-07-30T02:14:14.513Z,21.20
2022-07-30T02:16:45.027Z,17.77
2022-07-30T02:19:16.481Z,19.88
2022-07-30T02:21:50.383Z,23.65
2022-07-30T02:24:23.943Z,22.95
2022-07-30T02:29:24.471Z,21.47
2022-07-30T02:31:54.446Z,23.67
2022-07-30T02:34:24.350Z,18.77
2022-07-30T02:36:53.257Z,23.02
2022-07-30T02:39:22.855Z,21.63
2022-07-30T02:41:52.371Z,21.88
2022-07-30T02:44:21.228Z,22.27
2022-07-30T02:46:49.892Z,21.98
2022-07-30T02:49:20.539Z,20.75
2022-07-30T02:51:49.644Z,22.02
2022-07-30T02:54:19.596Z,22.58
2022-07-30T02:56:49.948Z,21.05
2022-07-30T02:59:20.142Z,22.83
2022-07-30T03:01:49.061Z,23.95
2022-07-30T03:04:20.782Z,25.05
2022-07-30T03:06:49.621Z,22.83
2022-07-30T03:09:18.520Z,20.27
2022-07-30T03:11:48.240Z,23.13
2022-07-30T03:14:15.144Z,25.23
2022-07-30T03:16:49.147Z,18.75
2022-07-30T03:19:20.644Z,21.70
2022-07-30T03:21:49.924Z,22.55
2022-07-30T03:24:18.295Z,20.02
2022-07-30T03:26:47.043Z,21.60
2022-07-30T03:29:16.604Z,22.30
2022-07-30T03:31:49.850Z,25.50
2022-07-30T03:34:17.645Z,23.45
2022-07-30T03:36:44.882Z,23.70
2022-07-30T03:39:12.621Z,20.60
2022-07-30T03:41:40.658Z,26.40
2022-07-30T03:44:08.685Z,22.95
2022-07-30T03:46:37.403Z,21.42
2022-07-30T03:49:06.069Z,21.38
2022-07-30T03:51:36.210Z,24.00
2022-07-30T03:54:09.380Z,22.83
2022-07-30T03:56:39.016Z,21.73
2022-07-30T03:59:06.305Z,23.70
2022-07-30T04:01:33.229Z,25.63
2022-07-30T04:04:08.170Z,19.85
2022-07-30T04:06:39.808Z,22.48
2022-07-30T04:09:08.978Z,21.20
2022-07-30T04:11:41.480Z,19.40
2022-07-30T04:14:09.253Z,22.05
2022-07-30T04:17:02.482Z,22.77
2022-07-30T04:22:16.230Z,20.85
2022-07-30T04:24:44.982Z,20.92
2022-07-30T04:27:12.193Z,21.15
2022-07-30T04:29:40.299Z,22.38
2022-07-30T04:32:09.726Z,20.98
2022-07-30T04:34:36.818Z,19.80
2022-07-30T04:37:04.446Z,18.55
2022-07-30T04:39:31.583Z,20.60
2022-07-30T04:41:58.429Z,20.08
2022-07-30T04:44:25.329Z,21.40
2022-07-30T04:46:52.270Z,19.73
2022-07-30T04:49:20.395Z,19.13
2022-07-30T04:51:49.123Z,24.40
2022-07-30T04:54:16.638Z,23.85
2022-07-30T04:56:50.241Z,20.67
2022-07-30T04:59:23.911Z,21.42
2022-07-30T05:01:52.534Z,18.73
2022-07-30T05:04:20.617Z,19.80
2022-07-30T05:06:48.296Z,24.85
2022-07-30T05:09:16.358Z,19.65
2022-07-30T05:11:50.295Z,20.30
2022-07-30T05:14:17.147Z,16.13
2022-07-30T05:16:44.009Z,15.63
2022-07-30T05:19:12.238Z,18.63
2022-07-30T05:21:39.218Z,16.73
2022-07-30T05:24:06.773Z,19.27
2022-07-30T05:26:33.872Z,17.52
2022-07-30T05:29:01.158Z,18.52
2022-07-30T05:31:31.720Z,16.13
2022-07-30T05:34:03.011Z,17.98
2022-07-30T05:36:31.010Z,17.17
2022-07-30T05:38:58.061Z,21.42
2022-07-30T05:41:32.403Z,18.73
2022-07-30T05:44:01.655Z,19.25
2022-07-30T05:46:29.043Z,17.60
2022-07-30T05:48:56.009Z,17.85
2022-07-30T05:51:22.988Z,19.92
2022-07-30T05:53:50.447Z,16.08
2022-07-30T05:56:17.399Z,15.13
2022-07-30T05:58:44.341Z,13.48
2022-07-30T06:01:12.167Z,16.15
2022-07-30T06:03:39.465Z,17.08
2022-07-30T06:06:07.717Z,15.57
2022-07-30T06:08:35.298Z,11.73
2022-07-30T06:11:02.366Z,13.40
2022-07-30T06:13:29.297Z,12.68
2022-07-30T06:15:56.786Z,14.85
2022-07-30T06:18:23.684Z,15.98
2022-07-30T06:20:54.774Z,19.88
2022-07-30T06:23:22.830Z,12.77
2022-07-30T06:25:50.817Z,12.05
2022-07-30T06:28:36.901Z,14.60
2022-07-30T06:31:05.447Z,13.80
2022-07-30T06:33:32.648Z,12.23
2022-07-30T06:35:59.515Z,13.35
2022-07-30T06:38:26.443Z,14.23
2022-07-30T06:40:53.437Z,13.48
2022-07-30T06:43:21.289Z,12.15
2022-07-30T06:45:48.489Z,14.45
2022-07-30T06:48:15.356Z,11.23
2022-07-30T06:50:42.564Z,12.65
2022-07-30T06:53:09.597Z,9.50
2022-07-30T06:55:36.513Z,8.40
2022-07-30T06:58:03.467Z,9.10
2022-07-30T07:00:30.483Z,7.85
2022-07-30T07:02:57.356Z,8.02
2022-07-30T07:05:25.240Z,8.38
2022-07-30T07:07:59.255Z,8.82
2022-07-30T07:10:27.561Z,8.85
2022-07-30T07:12:55.413Z,8.20
2022-07-30T07:15:36.459Z,9.32
2022-07-30T07:18:05.053Z,8.18
2022-07-30T07:20:33.133Z,7.10
2022-07-30T07:23:01.640Z,7.13
2022-07-30T07:25:33.564Z,8.07
2022-07-30T07:28:12.062Z,8.57
2022-07-30T07:30:41.637Z,8.05
2022-07-30T07:33:09.225Z,6.57
2022-07-30T07:35:45.537Z,7.95
2022-07-30T07:38:19.454Z,8.32
2022-07-30T07:40:47.404Z,6.53
2022-07-30T07:43:14.854Z,8.73
2022-07-30T07:45:43.159Z,8.50
2022-07-30T07:48:10.342Z,8.50
2022-07-30T07:50:37.500Z,7.40
2022-07-30T07:53:06.287Z,6.70
2022-07-30T07:55:33.166Z,11.15
2022-07-30T07:58:00.815Z,8.70
2022-07-30T08:00:27.937Z,6.65
2022-07-30T08:02:54.898Z,6.63
2022-07-30T08:05:21.865Z,6.82
2022-07-30T08:07:48.882Z,8.10
2022-07-30T08:10:16.206Z,7.43
2022-07-30T08:12:43.193Z,8.23
2022-07-30T08:15:10.803Z,7.53
2022-07-30T08:17:45.547Z,6.72
2022-07-30T08:20:14.583Z,8.82
2022-07-30T08:22:41.655Z,8.30
2022-07-30T08:25:09.483Z,8.82
2022-07-30T08:27:36.443Z,6.80
2022-07-30T08:30:08.935Z,6.88
2022-07-30T08:32:37.500Z,8.18
2022-07-30T08:35:06.412Z,11.68
2022-07-30T08:37:34.223Z,6.55
2022-07-30T08:40:01.136Z,8.68
2022-07-30T08:42:28.074Z,6.50
2022-07-30T08:44:56.783Z,6.75
2022-07-30T08:47:31.934Z,5.43
2022-07-30T08:50:06.562Z,4.40
2022-07-30T08:52:37.203Z,8.25
2022-07-30T08:55:08.324Z,6.07
2022-07-30T08:57:35.737Z,3.88
2022-07-30T09:00:05.373Z,4.30
2022-07-30T09:02:33.104Z,4.32
2022-07-30T09:05:00.084Z,4.47
2022-07-30T09:07:27.270Z,5.68
2022-07-30T09:09:54.126Z,4.57
2022-07-30T09:12:44.927Z,9.05
2022-07-30T09:15:30.015Z,6.45
2022-07-30T09:18:02.292Z,4.20
2022-07-30T09:20:35.070Z,4.50
2022-07-30T09:23:06.320Z,4.50
2022-07-30T09:25:48.830Z,3.95
2022-07-30T09:28:17.084Z,5.70
2022-07-30T09:30:49.902Z,4.10
2022-07-30T09:33:34.928Z,3.47
2022-07-30T09:36:02.511Z,4.07
2022-07-30T09:38:29.752Z,5.88
2022-07-30T09:41:00.165Z,4.75
2022-07-30T09:43:31.715Z,4.38
2022-07-30T09:46:00.501Z,5.15
2022-07-30T09:48:28.579Z,5.13
2022-07-30T09:50:57.517Z,4.53
2022-07-30T09:53:25.017Z,8.32
2022-07-30T09:55:51.836Z,5.13
2022-07-30T09:58:26.751Z,4.20
2022-07-30T10:01:01.266Z,3.55
2022-07-30T10:03:33.965Z,5.63
2022-07-30T10:06:09.156Z,3.30
2022-07-30T10:08:50.520Z,4.75
2022-07-30T10:11:23.810Z,5.20
2022-07-30T10:13:59.125Z,4.03
2022-07-30T10:16:29.487Z,3.78
2022-07-30T10:19:00.041Z,3.63
2022-07-30T10:21:28.572Z,3.10
2022-07-30T10:23:59.688Z,3.55
2022-07-30T10:26:28.092Z,3.58
2022-07-30T10:28:55.753Z,3.80
2022-07-30T10:31:48.693Z,3.42
2022-07-30T10:34:10.754Z,3.30
2022-07-30T10:36:43.261Z,5.93
2022-07-30T10:39:16.187Z,3.55
2022-07-30T10:44:59.960Z,4.95
2022-07-30T10:47:34.517Z,3.10
2022-07-30T10:50:22.720Z,5.05
2022-07-30T10:52:55.989Z,3.78
2022-07-30T10:55:38.810Z,4.47
2022-07-30T10:58:12.242Z,4.88
2022-07-30T11:03:41.701Z,3.45
2022-07-30T11:06:24.406Z,3.13
2022-07-30T11:08:51.853Z,3.15
2022-07-30T11:11:59.649Z,3.10
2022-07-30T11:14:10.799Z,3.25
2022-07-30T11:16:40.320Z,3.45
2022-07-30T11:19:56.839Z,2.95
2022-07-30T11:22:28.301Z,2.90
2022-07-30T11:24:57.038Z,3.75
2022-07-30T11:27:48.407Z,4.63
2022-07-30T11:30:23.663Z,2.60
2022-07-30T11:33:18.559Z,2.90
2022-07-30T11:36:10.477Z,2.53
2022-07-30T11:38:58.981Z,2.65
2022-07-30T11:44:26.694Z,4.45
2022-07-30T11:46:53.809Z,3.03
2022-07-30T11:49:21.429Z,2.72
2022-07-30T11:51:55.787Z,5.65
2022-07-30T11:54:25.152Z,5.13
2022-07-30T11:56:55.399Z,3.00
2022-07-30T11:59:22.716Z,2.35
2022-07-30T12:01:52.475Z,2.58
2022-07-30T12:04:19.654Z,2.63
2022-07-30T12:06:48.729Z,2.60
2022-07-30T12:09:24.372Z,2.88
2022-07-30T12:11:55.856Z,2.90
2022-07-30T12:14:23.066Z,4.38
2022-07-30T12:16:53.267Z,2.50
2022-07-30T12:19:20.277Z,3.00
2022-07-30T12:21:52.585Z,4.25
2022-07-30T12:24:26.284Z,5.72
2022-07-30T12:27:04.759Z,3.75
2022-07-30T12:29:33.812Z,9.57
2022-07-30T12:32:01.835Z,6.57
2022-07-30T12:34:28.843Z,10.15
2022-07-30T12:36:55.897Z,11.25
2022-07-30T12:39:27.823Z,5.20
2022-07-30T12:41:56.166Z,6.28
2022-07-30T12:44:44.870Z,9.13
2022-07-30T12:47:31.127Z,8.65
2022-07-30T12:50:02.507Z,9.85
2022-07-30T12:52:35.218Z,10.70
2022-07-30T12:55:13.267Z,9.13
2022-07-30T12:57:58.418Z,6.60
2022-07-30T13:00:47.033Z,5.18
2022-07-30T13:03:26.895Z,8.30
2022-07-30T13:05:57.500Z,5.28
2022-07-30T13:08:55.904Z,6.40
2022-07-30T13:11:40.836Z,6.78
2022-07-30T13:14:08.998Z,7.60
2022-07-30T13:16:37.269Z,6.00
2022-07-30T13:19:05.849Z,6.53
2022-07-30T13:21:33.758Z,5.82
2022-07-30T13:24:01.258Z,6.07
2022-07-30T13:26:31.200Z,7.60
2022-07-30T13:29:01.684Z,4.60
2022-07-30T13:31:29.083Z,5.05
2022-07-30T13:34:09.595Z,4.10
2022-07-30T13:36:36.450Z,3.75
2022-07-30T13:39:03.777Z,5.00
2022-07-30T13:41:30.675Z,3.42
2022-07-30T13:43:57.613Z,5.70
2022-07-30T13:46:24.516Z,5.10
2022-07-30T13:48:51.465Z,4.53
2022-07-30T13:51:18.735Z,4.53
2022-07-30T13:53:45.737Z,4.88
2022-07-30T13:56:13.202Z,4.07
2022-07-30T13:58:40.907Z,5.53
2022-07-30T14:01:07.862Z,5.13
2022-07-30T14:03:35.369Z,8.77
2022-07-30T14:06:11.027Z,5.20
2022-07-30T14:08:39.213Z,4.47
2022-07-30T14:11:06.126Z,6.88
2022-07-30T14:13:32.972Z,2.55
2022-07-30T14:15:59.954Z,2.25
2022-07-30T14:18:26.790Z,3.28
2022-07-30T14:20:53.796Z,4.95
2022-07-30T14:23:21.011Z,3.13
2022-07-30T14:25:47.980Z,6.18
2022-07-30T14:28:15.370Z,2.67
2022-07-30T14:30:42.715Z,2.33
2022-07-30T14:33:10.513Z,2.50
2022-07-30T14:35:37.414Z,2.20
2022-07-30T14:38:04.541Z,3.28
2022-07-30T14:40:31.732Z,2.20
2022-07-30T14:42:58.664Z,2.80
2022-07-30T14:45:25.722Z,2.42
2022-07-30T14:47:53.225Z,3.47
2022-07-30T14:50:20.359Z,2.72
2022-07-30T14:52:48.753Z,2.25
2022-07-30T14:55:15.646Z,2.97
2022-07-30T14:57:43.471Z,2.63
2022-07-30T15:00:11.935Z,2.80
2022-07-30T15:02:40.791Z,4.57
2022-07-30T15:05:08.942Z,4.78
2022-07-30T15:07:35.826Z,4.68
2022-07-30T15:10:03.782Z,2.38
2022-07-30T15:12:30.651Z,6.07
2022-07-30T15:14:57.549Z,4.00
2022-07-30T15:17:24.684Z,2.17
2022-07-30T15:19:51.854Z,2.85
2022-07-30T15:22:22.137Z,3.20
2022-07-30T15:24:49.803Z,8.98
2022-07-30T15:27:17.116Z,3.45
2022-07-30T15:29:44.524Z,2.60
2022-07-30T15:32:11.420Z,3.55
2022-07-30T15:34:38.342Z,2.78
2022-07-30T15:37:05.714Z,3.38
2022-07-30T15:39:33.957Z,2.70
2022-07-30T15:42:02.859Z,2.72
2022-07-30T15:44:30.296Z,3.45
2022-07-30T15:46:57.741Z,4.05
2022-07-30T15:49:24.916Z,3.60
2022-07-30T15:51:52.242Z,5.90
2022-07-30T15:54:23.283Z,6.03
2022-07-30T15:56:53.917Z,4.10
2022-07-30T15:59:22.059Z,4.57
2022-07-30T16:01:49.886Z,3.20
2022-07-30T16:04:19.871Z,3.40
2022-07-30T16:06:48.384Z,4.10
2022-07-30T16:09:16.535Z,3.17
2022-07-30T16:11:43.429Z,5.30
2022-07-30T16:14:11.120Z,5.10
2022-07-30T16:16:38.189Z,6.10
2022-07-30T16:19:05.200Z,3.00
2022-07-30T16:21:32.046Z,4.22
2022-07-30T16:23:59.300Z,4.57
2022-07-30T16:26:26.137Z,2.20
2022-07-30T16:28:53.099Z,2.60
2022-07-30T16:31:20.051Z,2.45
2022-07-30T16:33:47.326Z,3.78
2022-07-30T16:36:14.366Z,3.33
2022-07-30T16:38:41.422Z,1.98
2022-07-30T16:41:13.495Z,3.45
2022-07-30T16:43:40.916Z,2.28
2022-07-30T16:46:07.841Z,3.85
2022-07-30T16:48:34.772Z,3.35
2022-07-30T16:51:01.723Z,2.60
2022-07-30T16:53:29.102Z,3.53
2022-07-30T16:55:57.009Z,3.55
2022-07-30T16:58:30.642Z,4.93
2022-07-30T17:00:58.340Z,3.25
2022-07-30T17:03:25.740Z,3.50
2022-07-30T17:05:53.172Z,5.50
2022-07-30T17:08:24.981Z,3.25
2022-07-30T17:10:53.559Z,2.67
2022-07-30T17:13:21.585Z,4.82
2022-07-30T17:15:48.865Z,3.00
2022-07-30T17:18:16.483Z,6.10
2022-07-30T17:20:44.209Z,3.83
2022-07-30T17:23:11.341Z,4.05
2022-07-30T17:25:38.169Z,3.17
2022-07-30T17:28:05.261Z,5.90
2022-07-30T17:30:32.099Z,6.40
2022-07-30T17:32:59.011Z,5.30
2022-07-30T17:35:26.316Z,2.92
2022-07-30T17:37:53.334Z,4.25
2022-07-30T17:40:30.468Z,4.05
2022-07-30T17:43:03.991Z,2.80
2022-07-30T17:45:36.018Z,3.47
2022-07-30T17:48:04.573Z,5.25
2022-07-30T17:50:33.051Z,2.97
2022-07-30T17:53:03.452Z,5.47
2022-07-30T17:55:32.146Z,3.08
2022-07-30T17:57:58.987Z,9.82
2022-07-30T18:00:25.987Z,3.40
2022-07-30T18:02:52.958Z,3.97
2022-07-30T18:05:19.975Z,5.70
2022-07-30T18:07:46.942Z,4.20
2022-07-30T18:10:13.815Z,6.43
2022-07-30T18:12:48.683Z,8.25
2022-07-30T18:15:17.953Z,4.72
2022-07-30T18:17:45.148Z,3.53
2022-07-30T18:20:12.375Z,4.93
2022-07-30T18:22:39.671Z,6.03
2022-07-30T18:25:08.484Z,6.18
2022-07-30T18:27:49.949Z,5.00
2022-07-30T18:30:17.459Z,5.57
2022-07-30T18:32:45.244Z,4.05
2022-07-30T18:35:14.666Z,6.40
2022-07-30T18:37:43.723Z,3.70
2022-07-30T18:40:13.256Z,3.30
2022-07-30T18:42:40.475Z,3.50
2022-07-30T18:45:08.420Z,6.05
2022-07-30T18:47:35.307Z,7.95
2022-07-30T18:50:02.531Z,8.52
2022-07-30T18:52:29.500Z,8.32
2022-07-30T18:54:56.544Z,8.70
2022-07-30T18:57:23.401Z,6.68
2022-07-30T18:59:50.265Z,4.50
2022-07-30T19:02:17.082Z,5.43
2022-07-30T19:04:44.019Z,5.35
2022-07-30T19:07:10.998Z,4.95
2022-07-30T19:09:38.101Z,8.02
2022-07-30T19:12:05.687Z,8.63
2022-07-30T19:14:32.812Z,5.10
2022-07-30T19:16:59.957Z,5.05
2022-07-30T19:19:27.363Z,5.03
2022-07-30T19:21:54.652Z,6.07
2022-07-30T19:24:21.586Z,6.50
2022-07-30T19:26:49.195Z,4.30
2022-07-30T19:29:16.259Z,4.55
2022-07-30T19:31:43.078Z,5.68
2022-07-30T19:34:11.070Z,7.40
2022-07-30T19:36:39.497Z,4.32
2022-07-30T19:39:07.074Z,4.63
2022-07-30T19:41:40.439Z,9.07
2022-07-30T19:44:09.122Z,8.27
2022-07-30T19:46:36.385Z,4.78
2022-07-30T19:49:04.000Z,6.93
2022-07-30T19:52:09.954Z,5.47
2022-07-30T19:54:20.718Z,7.60
2022-07-30T19:56:48.720Z,5.13
2022-07-30T19:59:15.860Z,5.93
2022-07-30T20:01:47.811Z,4.88
2022-07-30T20:04:18.876Z,6.28
2022-07-30T20:06:46.233Z,5.15
2022-07-30T20:09:14.553Z,7.13
2022-07-30T20:11:43.850Z,6.78
2022-07-30T20:14:11.272Z,4.72
2022-07-30T20:16:43.778Z,5.15
2022-07-30T20:19:15.786Z,5.05
2022-07-30T20:21:56.530Z,10.00
2022-07-30T20:24:30.526Z,7.97
2022-07-30T20:26:58.103Z,5.72
2022-07-30T20:29:25.087Z,5.18
2022-07-30T20:31:52.008Z,6.38
2022-07-30T20:34:25.782Z,5.97
2022-07-30T20:39:25.171Z,5.15
2022-07-30T20:42:07.737Z,5.78
2022-07-30T20:44:50.508Z,9.43
2022-07-30T20:47:34.663Z,9.27
2022-07-30T20:50:10.792Z,8.00
2022-07-30T20:52:40.419Z,5.90
2022-07-30T20:55:09.974Z,6.00
2022-07-30T20:57:44.325Z,5.50
2022-07-30T21:00:25.366Z,13.70
2022-07-30T21:02:52.265Z,8.95
2022-07-30T21:05:20.026Z,7.57
2022-07-30T21:07:47.344Z,6.43
2022-07-30T21:10:14.594Z,5.63
2022-07-30T21:12:44.665Z,3.60
2022-07-30T21:15:23.388Z,3.38
2022-07-30T21:17:51.426Z,7.15
2022-07-30T21:20:27.911Z,5.68
2022-07-30T21:22:56.411Z,4.88
2022-07-30T21:25:33.046Z,5.90
2022-07-30T21:28:02.786Z,5.78
2022-07-30T21:30:31.228Z,9.10
2022-07-30T21:32:59.648Z,7.38
2022-07-30T21:35:32.066Z,7.38
2022-07-30T21:37:59.372Z,8.45
2022-07-30T21:40:27.681Z,8.93
2022-07-30T21:42:55.662Z,5.40
2022-07-30T21:45:23.846Z,7.10
2022-07-30T21:48:07.228Z,7.97
2022-07-30T21:50:34.073Z,4.80
2022-07-30T21:53:01.076Z,9.35
2022-07-30T21:55:28.054Z,5.35
2022-07-30T21:58:00.455Z,7.57
2022-07-30T22:00:50.083Z,6.82
2022-07-30T22:04:03.715Z,10.30
2022-07-30T22:06:07.375Z,5.53
2022-07-30T22:08:39.704Z,5.50
2022-07-30T22:11:08.908Z,8.05
2022-07-30T22:13:53.453Z,10.93
2022-07-30T22:16:21.875Z,5.18
2022-07-30T22:18:48.833Z,7.97
2022-07-30T22:21:15.850Z,8.35
2022-07-30T22:23:57.575Z,6.50
2022-07-30T22:26:27.931Z,7.38
2022-07-30T22:28:54.992Z,5.00
2022-07-30T22:31:22.026Z,6.03
2022-07-30T22:33:49.863Z,5.63
2022-07-30T22:36:24.480Z,7.68
2022-07-30T22:38:58.795Z,5.95
2022-07-30T22:41:26.370Z,6.53
2022-07-30T22:43:55.992Z,7.50
2022-07-30T22:46:31.140Z,5.90
2022-07-30T22:48:59.785Z,5.70
2022-07-30T22:52:01.224Z,7.13
2022-07-30T22:54:14.150Z,15.23
2022-07-30T22:56:42.377Z,6.85
2022-07-30T22:59:13.124Z,6.25
2022-07-30T23:01:43.322Z,7.72
2022-07-30T23:04:10.503Z,7.90
2022-07-30T23:06:37.519Z,7.78
2022-07-30T23:09:07.965Z,6.07
2022-07-30T23:11:38.771Z,6.20
2022-07-30T23:14:10.412Z,9.20
2022-07-30T23:16:38.700Z,5.60
2022-07-30T23:19:06.564Z,9.32
2022-07-30T23:21:34.840Z,6.95
2022-07-30T23:24:01.911Z,5.45
2022-07-30T23:26:28.734Z,5.30
2022-07-30T23:28:55.630Z,5.82
2022-07-30T23:31:26.692Z,7.10
2022-07-30T23:33:53.843Z,5.40
2022-07-30T23:36:20.658Z,9.48
2022-07-30T23:38:47.554Z,6.68
2022-07-30T23:41:14.390Z,10.45
2022-07-30T23:43:56.786Z,9.80
2022-07-30T23:46:23.597Z,5.82
2022-07-30T23:48:50.555Z,5.47
2022-07-30T23:51:17.494Z,9.15
2022-07-30T23:53:44.331Z,8.60
2022-07-30T23:56:18.016Z,5.55
2022-07-30T23:58:45.925Z,7.13
